createdAt,value
2019-04-22T00:00:46.585Z,42.70
2019-04-22T00:03:16.728Z,42.70
2019-04-22T00:06:10.135Z,42.80
2019-04-22T00:08:40.623Z,42.90
2019-04-22T00:11:16.170Z,42.90
2019-04-22T00:13:45.804Z,43.30
2019-04-22T00:16:07.306Z,43.30
2019-04-22T00:18:56.284Z,43.40
2019-04-22T00:21:12.642Z,43.50
2019-04-22T00:23:39.458Z,43.50
2019-04-22T00:26:20.235Z,43.90
2019-04-22T00:28:44.043Z,43.80
2019-04-22T00:31:28.658Z,43.70
2019-04-22T00:33:57.692Z,43.90
2019-04-22T00:36:33.256Z,43.70
2019-04-22T00:38:59.144Z,43.70
2019-04-22T00:41:28.628Z,43.40
2019-04-22T00:44:02.618Z,43.50
2019-04-22T00:46:35.720Z,43.50
2019-04-22T00:49:35.592Z,43.40
2019-04-22T00:51:36.889Z,43.60
2019-04-22T00:54:04.236Z,43.60
2019-04-22T00:56:27.769Z,43.80
2019-04-22T00:59:01.719Z,43.80
2019-04-22T01:01:32.100Z,44.00
2019-04-22T01:04:11.137Z,44.00
2019-04-22T01:06:30.734Z,44.10
2019-04-22T01:09:04.345Z,44.10
2019-04-22T01:11:47.235Z,44.20
2019-04-22T01:14:01.401Z,44.20
2019-04-22T01:16:37.161Z,43.60
2019-04-22T01:19:05.277Z,44.20
2019-04-22T01:21:47.793Z,44.60
2019-04-22T01:24:05.539Z,45.10
2019-04-22T01:26:30.036Z,45.40
2019-04-22T01:28:59.298Z,45.40
2019-04-22T01:31:19.544Z,46.40
2019-04-22T01:33:54.016Z,46.40
2019-04-22T01:36:35.305Z,46.90
2019-04-22T01:39:13.802Z,47.00
2019-04-22T01:41:50.373Z,47.20
2019-04-22T01:44:29.065Z,47.20
2019-04-22T01:46:47.700Z,47.60
2019-04-22T01:49:19.303Z,47.70
2019-04-22T01:51:54.341Z,48.10
2019-04-22T01:56:47.317Z,48.50
2019-04-22T01:59:06.283Z,48.60
2019-04-22T02:04:17.366Z,48.70
2019-04-22T02:09:31.616Z,49.40
2019-04-22T02:12:02.996Z,49.20
2019-04-22T02:14:20.720Z,49.70
2019-04-22T02:16:53.542Z,49.30
2019-04-22T02:19:37.676Z,50.00
2019-04-22T02:21:42.720Z,50.20
2019-04-22T02:24:20.162Z,50.30
2019-04-22T02:29:15.075Z,51.00
2019-04-22T02:31:51.139Z,50.70
2019-04-22T02:34:22.356Z,50.70
2019-04-22T02:39:20.163Z,50.50
2019-04-22T02:41:49.582Z,51.00
2019-04-22T02:44:16.915Z,50.80
2019-04-22T02:47:04.390Z,50.70
2019-04-22T02:51:43.255Z,51.10
2019-04-22T02:56:45.441Z,51.20
2019-04-22T02:59:28.774Z,51.20
2019-04-22T03:01:47.107Z,51.00
2019-04-22T03:04:24.599Z,50.90
2019-04-22T03:06:43.600Z,51.00
2019-04-22T03:09:23.952Z,50.90
2019-04-22T03:12:02.714Z,50.80
2019-04-22T03:14:22.729Z,50.90
2019-04-22T03:19:35.917Z,50.70
2019-04-22T03:21:54.366Z,50.40
2019-04-22T03:24:25.592Z,50.40
2019-04-22T03:26:58.594Z,50.50
2019-04-22T03:30:39.379Z,50.50
2019-04-22T03:32:53.788Z,50.70
2019-04-22T03:40:22.677Z,50.60
2019-04-22T03:42:46.788Z,50.60
2019-04-22T03:45:10.392Z,50.60
2019-04-22T03:47:36.659Z,50.60
2019-04-22T03:50:24.345Z,49.90
2019-04-22T03:52:47.157Z,49.90
2019-04-22T03:55:16.220Z,48.30
2019-04-22T04:00:15.559Z,48.00
2019-04-22T04:02:39.429Z,48.90
2019-04-22T04:04:59.170Z,48.10
2019-04-22T04:07:47.467Z,48.30
2019-04-22T04:10:12.069Z,48.20
2019-04-22T04:17:56.808Z,51.60
2019-04-22T04:20:24.296Z,52.20
2019-04-22T04:25:27.563Z,51.20
2019-04-22T04:28:24.491Z,51.40
2019-04-22T04:32:54.735Z,51.40
2019-04-22T04:35:35.057Z,50.90
2019-04-22T04:37:52.375Z,51.10
2019-04-22T04:43:00.875Z,50.80
2019-04-22T04:45:31.972Z,50.50
2019-04-22T04:55:23.981Z,49.50
2019-04-22T04:58:19.988Z,49.50
2019-04-22T05:02:52.975Z,49.10
2019-04-22T05:05:29.288Z,48.80
2019-04-22T05:10:39.321Z,48.60
2019-04-22T05:18:06.206Z,47.00
2019-04-22T05:20:49.263Z,47.00
2019-04-22T05:22:44.246Z,47.30
2019-04-22T05:25:19.028Z,47.00
2019-04-22T05:27:50.945Z,47.40
2019-04-22T05:32:47.619Z,46.80
2019-04-22T05:35:25.320Z,46.80
2019-04-22T05:37:49.990Z,47.20
2019-04-22T05:42:53.120Z,47.10
2019-04-22T05:47:52.402Z,47.00
2019-04-22T05:50:19.042Z,47.10
2019-04-22T05:52:52.665Z,46.60
2019-04-22T05:55:22.661Z,46.60
2019-04-22T05:57:51.068Z,46.40
2019-04-22T06:00:37.029Z,46.30
2019-04-22T06:02:56.665Z,46.20
2019-04-22T06:05:25.012Z,46.40
2019-04-22T06:07:59.188Z,45.50
2019-04-22T06:10:35.804Z,46.40
2019-04-22T06:12:56.522Z,45.30
2019-04-22T06:15:31.626Z,45.00
2019-04-22T06:18:14.770Z,45.40
2019-04-22T06:20:37.388Z,45.20
2019-04-22T06:25:55.440Z,45.30
2019-04-22T06:28:13.550Z,45.20
2019-04-22T06:30:34.695Z,45.00
2019-04-22T06:33:09.508Z,45.50
2019-04-22T06:38:28.226Z,44.70
2019-04-22T06:40:39.156Z,44.20
2019-04-22T06:43:08.802Z,44.60
2019-04-22T06:45:41.576Z,43.00
2019-04-22T06:48:19.562Z,43.00
2019-04-22T06:50:45.888Z,42.10
2019-04-22T06:53:09.224Z,41.60
2019-04-22T06:55:44.346Z,42.00
2019-04-22T06:58:10.149Z,42.50
2019-04-22T07:00:41.570Z,42.70
2019-04-22T07:05:59.958Z,42.50
2019-04-22T07:08:39.138Z,43.20
2019-04-22T07:10:47.812Z,43.10
2019-04-22T07:13:23.404Z,42.70
2019-04-22T07:18:24.902Z,42.40
2019-04-22T07:20:50.789Z,41.60
2019-04-22T07:23:21.420Z,41.60
2019-04-22T07:25:45.192Z,41.20
2019-04-22T07:28:17.621Z,40.80
2019-04-22T07:30:44.675Z,41.30
2019-04-22T07:33:22.810Z,40.60
2019-04-22T07:38:25.606Z,40.10
2019-04-22T07:40:50.405Z,39.80
2019-04-22T07:43:32.434Z,39.90
2019-04-22T07:45:48.909Z,39.60
2019-04-22T07:48:35.754Z,39.30
2019-04-22T07:51:00.630Z,40.00
2019-04-22T07:53:21.877Z,39.60
2019-04-22T07:55:51.796Z,39.60
2019-04-22T07:58:24.152Z,38.80
2019-04-22T08:00:55.650Z,39.00
2019-04-22T08:03:31.527Z,38.20
2019-04-22T08:06:05.478Z,38.90
2019-04-22T08:10:57.824Z,38.60
2019-04-22T08:13:24.809Z,37.50
2019-04-22T08:18:28.949Z,37.10
2019-04-22T08:23:57.496Z,36.20
2019-04-22T08:26:27.614Z,36.20
2019-04-22T08:29:03.406Z,35.40
2019-04-22T08:31:31.639Z,35.40
2019-04-22T08:34:01.661Z,35.60
2019-04-22T08:36:54.006Z,35.20
2019-04-22T08:39:00.684Z,34.90
2019-04-22T08:44:02.441Z,35.00
2019-04-22T08:49:00.721Z,34.50
2019-04-22T08:51:40.332Z,34.20
2019-04-22T08:54:07.815Z,34.70
2019-04-22T08:56:37.591Z,33.50
2019-04-22T08:59:10.931Z,32.90
2019-04-22T09:01:32.763Z,32.00
2019-04-22T09:04:02.567Z,29.80
2019-04-22T09:06:56.495Z,28.20
2019-04-22T09:09:09.665Z,26.90
2019-04-22T09:11:35.603Z,27.10
2019-04-22T09:14:13.951Z,27.10
2019-04-22T09:19:12.584Z,26.00
2019-04-22T09:21:45.602Z,26.70
2019-04-22T09:24:10.623Z,26.80
2019-04-22T09:26:43.712Z,27.10
2019-04-22T09:31:47.505Z,27.20
2019-04-22T09:34:14.090Z,26.00
2019-04-22T09:36:50.397Z,26.20
2019-04-22T09:39:17.102Z,26.80
2019-04-22T09:41:55.380Z,26.50
2019-04-22T09:44:16.350Z,26.50
2019-04-22T09:46:47.038Z,26.90
2019-04-22T09:49:23.289Z,26.30
2019-04-22T09:51:54.080Z,26.70
2019-04-22T09:54:22.095Z,27.20
2019-04-22T09:56:49.443Z,25.90
2019-04-22T09:59:20.692Z,26.70
2019-04-22T10:01:59.671Z,26.30
2019-04-22T10:04:18.178Z,26.00
2019-04-22T10:06:59.600Z,26.70
2019-04-22T10:11:53.464Z,26.10
2019-04-22T10:14:21.850Z,26.30
2019-04-22T10:16:49.368Z,25.50
2019-04-22T10:22:05.250Z,25.20
2019-04-22T10:24:19.151Z,24.40
2019-04-22T10:26:54.940Z,24.80
2019-04-22T10:29:43.602Z,24.80
2019-04-22T10:34:13.119Z,25.60
2019-04-22T10:36:27.842Z,24.30
2019-04-22T10:38:58.034Z,25.50
2019-04-22T10:41:28.299Z,24.50
2019-04-22T10:43:57.108Z,24.60
2019-04-22T10:46:26.354Z,24.50
2019-04-22T10:48:55.081Z,24.30
2019-04-22T10:51:24.429Z,24.60
2019-04-22T10:53:53.434Z,24.30
2019-04-22T10:56:23.048Z,24.10
2019-04-22T10:58:52.946Z,23.80
2019-04-22T11:01:21.714Z,24.30
2019-04-22T11:03:51.097Z,24.20
2019-04-22T11:06:21.205Z,24.30
2019-04-22T11:08:55.496Z,25.20
2019-04-22T11:11:32.573Z,25.30
2019-04-22T11:13:51.920Z,24.80
2019-04-22T11:16:21.407Z,24.50
2019-04-22T11:18:51.573Z,24.90
2019-04-22T11:21:20.325Z,25.60
2019-04-22T11:23:50.264Z,26.50
2019-04-22T11:26:19.863Z,26.70
2019-04-22T11:28:49.627Z,26.30
2019-04-22T11:31:18.707Z,26.70
2019-04-22T11:33:48.298Z,27.50
2019-04-22T11:36:17.753Z,27.70
2019-04-22T11:38:52.979Z,29.10
2019-04-22T11:41:16.914Z,29.50
2019-04-22T11:43:45.432Z,29.80
2019-04-22T11:46:15.536Z,30.60
2019-04-22T11:48:45.515Z,30.40
2019-04-22T11:51:15.827Z,30.60
2019-04-22T11:53:45.114Z,31.50
2019-04-22T11:56:13.805Z,31.80
2019-04-22T11:58:42.668Z,32.60
2019-04-22T12:01:12.786Z,32.80
2019-04-22T12:03:41.978Z,33.60
2019-04-22T12:06:10.665Z,33.60
2019-04-22T12:08:39.665Z,33.70
2019-04-22T12:11:09.842Z,33.40
2019-04-22T12:13:40.367Z,33.50
2019-04-22T12:16:09.390Z,33.30
2019-04-22T12:18:39.504Z,34.90
2019-04-22T12:21:08.965Z,34.80
2019-04-22T12:23:39.079Z,35.20
2019-04-22T12:26:13.040Z,35.40
2019-04-22T12:28:39.238Z,35.50
2019-04-22T12:31:09.432Z,35.30
2019-04-22T12:33:39.293Z,35.80
2019-04-22T12:36:10.919Z,36.00
2019-04-22T12:38:39.982Z,36.00
2019-04-22T12:41:12.096Z,36.40
2019-04-22T12:43:40.983Z,35.20
2019-04-22T12:46:10.157Z,35.90
2019-04-22T12:48:39.268Z,36.20
2019-04-22T12:51:09.230Z,35.40
2019-04-22T12:53:38.090Z,35.50
2019-04-22T12:56:07.086Z,36.30
2019-04-22T12:58:35.851Z,36.00
2019-04-22T13:01:04.957Z,35.90
2019-04-22T13:03:34.124Z,35.90
2019-04-22T13:06:05.723Z,35.10
2019-04-22T13:08:35.741Z,36.30
2019-04-22T13:11:10.389Z,36.00
2019-04-22T13:13:34.766Z,36.30
2019-04-22T13:16:04.626Z,36.50
2019-04-22T13:18:41.644Z,34.80
2019-04-22T13:21:04.596Z,35.00
2019-04-22T13:23:34.056Z,34.50
2019-04-22T13:26:03.049Z,35.10
2019-04-22T13:28:34.447Z,35.40
2019-04-22T13:31:03.698Z,35.50
2019-04-22T13:33:32.889Z,35.70
2019-04-22T13:36:01.715Z,35.10
2019-04-22T13:38:33.173Z,35.50
2019-04-22T13:41:16.872Z,35.60
2019-04-22T13:43:32.025Z,35.60
2019-04-22T13:46:01.797Z,35.30
2019-04-22T13:48:53.367Z,35.20
2019-04-22T13:51:33.934Z,35.90
2019-04-22T13:54:31.382Z,35.10
2019-04-22T13:56:22.138Z,35.40
2019-04-22T13:58:46.142Z,36.10
2019-04-22T14:01:07.016Z,35.40
2019-04-22T14:03:44.713Z,34.60
2019-04-22T14:06:13.659Z,34.40
2019-04-22T14:08:43.093Z,33.90
2019-04-22T14:11:25.308Z,34.40
2019-04-22T14:13:42.087Z,34.20
2019-04-22T14:16:11.050Z,34.40
2019-04-22T14:18:41.095Z,33.70
2019-04-22T14:21:09.962Z,33.60
2019-04-22T14:23:38.599Z,31.70
2019-04-22T14:26:07.336Z,31.60
2019-04-22T14:28:35.855Z,32.70
2019-04-22T14:31:04.592Z,33.90
2019-04-22T14:33:34.165Z,33.20
2019-04-22T14:36:02.958Z,33.00
2019-04-22T14:38:32.423Z,34.00
2019-04-22T14:41:02.423Z,34.60
2019-04-22T14:44:00.779Z,33.60
2019-04-22T14:46:29.525Z,32.80
2019-04-22T14:49:10.416Z,32.70
2019-04-22T14:51:22.323Z,34.00
2019-04-22T14:53:52.296Z,34.20
2019-04-22T14:56:02.424Z,33.60
2019-04-22T14:58:31.197Z,32.80
2019-04-22T15:01:01.207Z,32.30
2019-04-22T15:03:33.344Z,32.40
2019-04-22T15:06:06.209Z,32.10
2019-04-22T15:08:32.989Z,33.80
2019-04-22T15:11:02.159Z,33.70
2019-04-22T15:13:39.097Z,33.30
2019-04-22T15:16:26.003Z,31.90
2019-04-22T15:19:02.405Z,31.30
2019-04-22T15:21:32.353Z,31.80
2019-04-22T15:24:02.709Z,33.10
2019-04-22T15:26:32.659Z,32.20
2019-04-22T15:29:01.324Z,32.20
2019-04-22T15:31:31.366Z,32.70
2019-04-22T15:34:00.547Z,33.10
2019-04-22T15:36:30.482Z,33.80
2019-04-22T15:38:59.626Z,34.10
2019-04-22T15:41:28.552Z,33.50
2019-04-22T15:43:57.546Z,33.10
2019-04-22T15:46:26.080Z,33.10
2019-04-22T15:48:55.873Z,32.80
2019-04-22T15:51:24.759Z,33.10
2019-04-22T15:53:53.964Z,33.80
2019-04-22T15:56:22.990Z,34.00
2019-04-22T15:58:51.634Z,34.60
2019-04-22T16:01:27.506Z,34.90
2019-04-22T16:03:50.474Z,34.40
2019-04-22T16:06:19.966Z,34.30
2019-04-22T16:08:49.833Z,34.10
2019-04-22T16:11:19.928Z,35.00
2019-04-22T16:13:48.652Z,34.10
2019-04-22T16:16:18.574Z,35.00
2019-04-22T16:18:48.483Z,34.50
2019-04-22T16:21:30.316Z,34.90
2019-04-22T16:23:50.158Z,34.50
2019-04-22T16:26:20.442Z,35.20
2019-04-22T16:28:49.357Z,35.00
2019-04-22T16:31:19.518Z,35.20
2019-04-22T16:33:48.231Z,35.30
2019-04-22T16:36:16.870Z,35.40
2019-04-22T16:38:46.783Z,35.90
2019-04-22T16:41:16.880Z,36.40
2019-04-22T16:43:46.671Z,36.10
2019-04-22T16:46:15.987Z,36.10
2019-04-22T16:48:45.441Z,35.90
2019-04-22T16:51:14.110Z,35.90
2019-04-22T16:53:43.241Z,36.10
2019-04-22T16:56:12.973Z,36.60
2019-04-22T16:58:43.047Z,36.70
2019-04-22T17:01:20.656Z,37.00
2019-04-22T17:04:05.042Z,37.60
2019-04-22T17:06:35.469Z,37.70
2019-04-22T17:09:06.706Z,37.70
2019-04-22T17:11:35.941Z,37.80
2019-04-22T17:14:05.559Z,37.20
2019-04-22T17:16:34.502Z,37.70
2019-04-22T17:19:04.522Z,38.40
2019-04-22T17:21:35.237Z,38.40
2019-04-22T17:24:05.604Z,38.60
2019-04-22T17:26:34.580Z,39.40
2019-04-22T17:29:06.373Z,39.00
2019-04-22T17:31:34.642Z,39.50
2019-04-22T17:34:04.763Z,39.50
2019-04-22T17:36:34.074Z,39.50
2019-04-22T17:39:18.363Z,39.90
2019-04-22T17:41:50.483Z,40.00
2019-04-22T17:44:38.100Z,39.90
2019-04-22T17:46:55.019Z,40.50
2019-04-22T17:49:44.459Z,40.30
2019-04-22T17:52:21.175Z,40.80
2019-04-22T17:55:05.070Z,40.80
2019-04-22T17:57:22.516Z,41.20
2019-04-22T17:59:50.590Z,41.60
2019-04-22T18:02:19.299Z,42.10
2019-04-22T18:04:40.156Z,42.50
2019-04-22T18:07:30.514Z,42.30
2019-04-22T18:10:16.179Z,42.70
2019-04-22T18:12:33.546Z,43.10
2019-04-22T18:17:32.493Z,43.60
2019-04-22T18:19:54.610Z,43.50
2019-04-22T18:22:22.015Z,43.90
2019-04-22T18:24:53.102Z,44.00
2019-04-22T18:27:43.032Z,44.20
2019-04-22T18:29:57.417Z,44.50
2019-04-22T18:32:26.066Z,45.00
2019-04-22T18:34:53.198Z,44.80
2019-04-22T18:37:24.911Z,45.00
2019-04-22T18:40:03.336Z,45.20
2019-04-22T18:42:33.383Z,45.30
2019-04-22T18:45:23.319Z,45.90
2019-04-22T18:47:37.164Z,45.80
2019-04-22T18:50:03.033Z,46.90
2019-04-22T18:52:45.625Z,46.40
2019-04-22T18:55:25.165Z,46.40
2019-04-22T18:58:02.984Z,46.40
2019-04-22T19:00:25.345Z,46.90
2019-04-22T19:03:01.953Z,47.30
2019-04-22T19:05:45.353Z,47.20
2019-04-22T19:08:23.026Z,47.60
2019-04-22T19:11:08.416Z,47.50
2019-04-22T19:13:50.077Z,48.00
2019-04-22T19:16:12.784Z,47.70
2019-04-22T19:18:31.772Z,48.00
2019-04-22T19:20:58.077Z,47.90
2019-04-22T19:23:22.721Z,48.40
2019-04-22T19:25:46.425Z,48.80
2019-04-22T19:28:29.602Z,48.60
2019-04-22T19:31:05.500Z,48.60
2019-04-22T19:33:28.942Z,49.20
2019-04-22T19:35:59.281Z,49.10
2019-04-22T19:38:16.769Z,49.20
2019-04-22T19:41:08.072Z,49.30
2019-04-22T19:43:31.057Z,49.60
2019-04-22T19:46:02.122Z,49.70
2019-04-22T19:48:44.026Z,49.80
2019-04-22T19:51:11.367Z,50.10
2019-04-22T19:53:35.566Z,50.00
2019-04-22T19:56:01.517Z,50.10
2019-04-22T19:58:34.957Z,50.30
2019-04-22T20:01:23.643Z,50.40
2019-04-22T20:04:03.435Z,50.70
2019-04-22T20:06:39.593Z,51.20
2019-04-22T20:09:13.628Z,51.00
2019-04-22T20:11:38.553Z,51.20
2019-04-22T20:14:12.632Z,51.00
2019-04-22T20:16:43.815Z,51.00
2019-04-22T20:19:19.533Z,51.30
2019-04-22T20:21:43.479Z,51.30
2019-04-22T20:24:01.069Z,51.50
2019-04-22T20:26:45.574Z,51.00
2019-04-22T20:29:17.280Z,51.40
2019-04-22T20:31:45.257Z,51.60
2019-04-22T20:34:14.355Z,52.00
2019-04-22T20:37:01.790Z,51.70
2019-04-22T20:39:12.463Z,51.90
2019-04-22T20:41:43.321Z,52.70
2019-04-22T20:44:22.695Z,52.30
2019-04-22T20:46:44.699Z,52.30
2019-04-22T20:49:20.357Z,52.30
2019-04-22T20:54:19.588Z,52.50
2019-04-22T20:56:45.350Z,52.50
2019-04-22T20:59:19.056Z,52.50
2019-04-22T21:01:48.920Z,52.70
2019-04-22T21:04:04.781Z,52.60
2019-04-22T21:06:47.734Z,52.90
2019-04-22T21:09:23.899Z,52.70
2019-04-22T21:11:48.310Z,52.80
2019-04-22T21:14:14.784Z,52.80
2019-04-22T21:16:51.631Z,53.00
2019-04-22T21:19:33.109Z,53.00
2019-04-22T21:21:50.244Z,53.00
2019-04-22T21:24:20.345Z,53.00
2019-04-22T21:26:49.566Z,53.00
2019-04-22T21:29:18.703Z,53.80
2019-04-22T21:31:57.901Z,53.20
2019-04-22T21:34:20.633Z,53.30
2019-04-22T21:36:55.918Z,53.40
2019-04-22T21:39:17.710Z,53.20
2019-04-22T21:41:52.490Z,53.50
2019-04-22T21:44:26.901Z,54.10
2019-04-22T21:47:03.316Z,53.20
2019-04-22T21:49:29.549Z,53.50
2019-04-22T21:52:13.451Z,53.90
2019-04-22T21:54:26.459Z,53.60
2019-04-22T21:57:17.307Z,53.80
2019-04-22T21:59:30.672Z,53.80
2019-04-22T22:02:16.141Z,53.70
2019-04-22T22:04:29.188Z,54.00
2019-04-22T22:06:55.345Z,54.20
2019-04-22T22:09:37.970Z,54.10
2019-04-22T22:12:05.574Z,54.40
2019-04-22T22:14:39.795Z,54.20
2019-04-22T22:17:01.604Z,54.50
2019-04-22T22:19:39.429Z,54.50
2019-04-22T22:22:17.299Z,54.50
2019-04-22T22:24:41.593Z,55.10
2019-04-22T22:27:10.454Z,54.80
2019-04-22T22:29:49.336Z,55.10
2019-04-22T22:32:22.040Z,54.80
2019-04-22T22:34:38.908Z,54.90
2019-04-22T22:37:07.705Z,55.00
2019-04-22T22:39:38.047Z,54.90
2019-04-22T22:41:54.250Z,55.20
2019-04-22T22:44:32.150Z,55.20
2019-04-22T22:47:13.049Z,55.30
2019-04-22T22:49:46.993Z,55.30
2019-04-22T22:52:39.162Z,55.10
2019-04-22T22:54:46.679Z,55.40
2019-04-22T22:57:25.815Z,55.50
2019-04-22T22:59:44.160Z,55.60
2019-04-22T23:02:15.663Z,55.60
2019-04-22T23:04:48.754Z,55.40
2019-04-22T23:07:22.751Z,55.50
2019-04-22T23:09:47.200Z,55.60
2019-04-22T23:12:32.946Z,55.80
2019-04-22T23:14:51.475Z,55.80
2019-04-22T23:17:03.823Z,56.00
2019-04-22T23:19:28.016Z,55.80
2019-04-22T23:22:01.244Z,56.00
2019-04-22T23:24:44.103Z,55.90
2019-04-22T23:27:22.821Z,56.00
2019-04-22T23:29:46.319Z,56.20
2019-04-22T23:32:18.485Z,56.10
2019-04-22T23:34:55.976Z,56.20
2019-04-22T23:37:23.222Z,56.20
2019-04-22T23:40:11.714Z,56.00
2019-04-22T23:42:27.385Z,56.10
2019-04-22T23:45:04.031Z,56.10
2019-04-22T23:47:26.566Z,56.20
2019-04-22T23:50:01.087Z,56.30
2019-04-22T23:52:46.869Z,56.30
2019-04-22T23:55:18.327Z,56.60
2019-04-22T23:57:52.839Z,56.40
